Terminal Aerodrome Forecast
Issued by NWS

Home | Current Version | Previous Version | Text Only | Print | Product List | Glossary On
Versions: 1 2 3 4 5 6 7 8 9 10 11 12 13 14 15 16 17 18 19 20 21
000
FTUS46 KSEW 252300
TAFBFI
TAF
KBFI 252320Z 2600/2624 VRB04KT P6SM SCT045
     FM260600 VRB03KT P6SM FEW060
     FM261400 00000KT P6SM SCT015
     FM261800 31005KT P6SM FEW030=

USA.gov is the U.S. government's official web portal to all federal, state and local government web resources and services.